sensor_id;sensor_type;location;lat;lon;timestamp;P1;durP1;ratioP1;P2;durP2;ratioP2
48651;SDS011;34442;52.362;-1.302;2023-05-16T00:01:10;2.00;;;0.90;;
48651;SDS011;34442;52.362;-1.302;2023-05-16T00:03:36;2.78;;;1.00;;
48651;SDS011;34442;52.362;-1.302;2023-05-16T00:06:02;1.85;;;1.02;;
48651;SDS011;34442;52.362;-1.302;2023-05-16T00:08:29;1.17;;;0.90;;
48651;SDS011;34442;52.362;-1.302;2023-05-16T00:10:55;1.75;;;0.90;;
48651;SDS011;34442;52.362;-1.302;2023-05-16T00:13:20;1.58;;;0.80;;
48651;SDS011;34442;52.362;-1.302;2023-05-16T00:15:49;1.75;;;0.88;;
48651;SDS011;34442;52.362;-1.302;2023-05-16T00:18:16;3.08;;;1.00;;
48651;SDS011;34442;52.362;-1.302;2023-05-16T00:20:42;1.77;;;0.93;;
48651;SDS011;34442;52.362;-1.302;2023-05-16T00:23:07;2.13;;;1.00;;
48651;SDS011;34442;52.362;-1.302;2023-05-16T00:25:33;2.97;;;1.10;;
48651;SDS011;34442;52.362;-1.302;2023-05-16T00:27:58;3.38;;;1.00;;
48651;SDS011;34442;52.362;-1.302;2023-05-16T00:30:24;0.98;;;0.75;;
48651;SDS011;34442;52.362;-1.302;2023-05-16T00:32:49;1.23;;;0.80;;
48651;SDS011;34442;52.362;-1.302;2023-05-16T00:35:14;1.38;;;0.82;;
48651;SDS011;34442;52.362;-1.302;2023-05-16T00:37:40;2.17;;;0.85;;
48651;SDS011;34442;52.362;-1.302;2023-05-16T00:40:05;2.58;;;0.80;;
48651;SDS011;34442;52.362;-1.302;2023-05-16T00:42:32;2.28;;;0.93;;
48651;SDS011;34442;52.362;-1.302;2023-05-16T00:44:57;0.70;;;0.70;;
48651;SDS011;34442;52.362;-1.302;2023-05-16T00:47:23;1.55;;;0.88;;
48651;SDS011;34442;52.362;-1.302;2023-05-16T00:49:48;1.33;;;0.70;;
48651;SDS011;34442;52.362;-1.302;2023-05-16T00:52:14;1.88;;;0.90;;
48651;SDS011;34442;52.362;-1.302;2023-05-16T00:54:40;1.25;;;0.85;;
48651;SDS011;34442;52.362;-1.302;2023-05-16T00:57:05;1.33;;;0.90;;
48651;SDS011;34442;52.362;-1.302;2023-05-16T00:59:33;0.77;;;0.70;;
48651;SDS011;34442;52.362;-1.302;2023-05-16T01:01:59;3.53;;;1.38;;
48651;SDS011;34442;52.362;-1.302;2023-05-16T01:04:25;0.95;;;0.70;;
48651;SDS011;34442;52.362;-1.302;2023-05-16T01:06:50;2.88;;;1.05;;
48651;SDS011;34442;52.362;-1.302;2023-05-16T01:09:16;2.15;;;0.95;;
48651;SDS011;34442;52.362;-1.302;2023-05-16T01:19:53;1.95;;;0.90;;
48651;SDS011;34442;52.362;-1.302;2023-05-16T01:25:26;1.63;;;0.95;;
48651;SDS011;34442;52.362;-1.302;2023-05-16T01:28:02;1.58;;;0.80;;
48651;SDS011;34442;52.362;-1.302;2023-05-16T01:30:32;2.22;;;0.95;;
48651;SDS011;34442;52.362;-1.302;2023-05-16T01:33:00;1.67;;;0.70;;
48651;SDS011;34442;52.362;-1.302;2023-05-16T01:35:25;3.60;;;1.13;;
48651;SDS011;34442;52.362;-1.302;2023-05-16T01:37:55;1.67;;;0.90;;
48651;SDS011;34442;52.362;-1.302;2023-05-16T01:40:35;1.95;;;0.90;;
48651;SDS011;34442;52.362;-1.302;2023-05-16T01:43:10;1.50;;;0.60;;
48651;SDS011;34442;52.362;-1.302;2023-05-16T01:45:40;2.10;;;0.95;;
48651;SDS011;34442;52.362;-1.302;2023-05-16T01:48:21;2.65;;;1.10;;
48651;SDS011;34442;52.362;-1.302;2023-05-16T01:50:53;1.27;;;0.82;;
48651;SDS011;34442;52.362;-1.302;2023-05-16T01:53:27;2.38;;;1.00;;
48651;SDS011;34442;52.362;-1.302;2023-05-16T01:55:58;1.52;;;1.00;;
48651;SDS011;34442;52.362;-1.302;2023-05-16T01:58:27;1.85;;;0.80;;
48651;SDS011;34442;52.362;-1.302;2023-05-16T02:00:58;1.52;;;0.88;;
48651;SDS011;34442;52.362;-1.302;2023-05-16T02:03:25;2.70;;;0.95;;
48651;SDS011;34442;52.362;-1.302;2023-05-16T02:05:51;0.93;;;0.75;;
48651;SDS011;34442;52.362;-1.302;2023-05-16T02:08:16;1.85;;;0.73;;
48651;SDS011;34442;52.362;-1.302;2023-05-16T02:10:42;1.70;;;0.70;;
48651;SDS011;34442;52.362;-1.302;2023-05-16T02:13:07;1.50;;;0.93;;
48651;SDS011;34442;52.362;-1.302;2023-05-16T02:15:33;2.63;;;0.90;;
48651;SDS011;34442;52.362;-1.302;2023-05-16T02:17:58;3.25;;;1.13;;
48651;SDS011;34442;52.362;-1.302;2023-05-16T02:20:24;1.23;;;0.80;;
48651;SDS011;34442;52.362;-1.302;2023-05-16T02:22:49;2.08;;;1.10;;
48651;SDS011;34442;52.362;-1.302;2023-05-16T02:25:15;5.28;;;1.58;;
48651;SDS011;34442;52.362;-1.302;2023-05-16T02:27:40;1.58;;;0.82;;
48651;SDS011;34442;52.362;-1.302;2023-05-16T02:30:07;0.73;;;0.60;;
48651;SDS011;34442;52.362;-1.302;2023-05-16T02:32:34;1.30;;;0.80;;
48651;SDS011;34442;52.362;-1.302;2023-05-16T02:34:59;0.68;;;0.68;;
48651;SDS011;34442;52.362;-1.302;2023-05-16T02:37:25;1.48;;;0.80;;
48651;SDS011;34442;52.362;-1.302;2023-05-16T02:39:50;1.63;;;0.73;;
48651;SDS011;34442;52.362;-1.302;2023-05-16T02:42:16;2.80;;;0.93;;
48651;SDS011;34442;52.362;-1.302;2023-05-16T02:44:41;1.65;;;0.80;;
48651;SDS011;34442;52.362;-1.302;2023-05-16T02:47:07;2.88;;;1.05;;
48651;SDS011;34442;52.362;-1.302;2023-05-16T02:49:32;2.47;;;1.20;;
48651;SDS011;34442;52.362;-1.302;2023-05-16T02:51:58;3.28;;;1.40;;
48651;SDS011;34442;52.362;-1.302;2023-05-16T02:54:23;2.85;;;0.98;;
48651;SDS011;34442;52.362;-1.302;2023-05-16T02:56:48;3.28;;;1.00;;
48651;SDS011;34442;52.362;-1.302;2023-05-16T02:59:14;2.60;;;1.10;;
48651;SDS011;34442;52.362;-1.302;2023-05-16T03:01:39;1.75;;;0.90;;
48651;SDS011;34442;52.362;-1.302;2023-05-16T03:04:05;1.95;;;0.98;;
48651;SDS011;34442;52.362;-1.302;2023-05-16T03:06:30;2.38;;;1.00;;
48651;SDS011;34442;52.362;-1.302;2023-05-16T03:08:56;2.33;;;1.00;;
48651;SDS011;34442;52.362;-1.302;2023-05-16T03:11:21;4.40;;;1.02;;
48651;SDS011;34442;52.362;-1.302;2023-05-16T03:13:48;3.70;;;1.35;;
48651;SDS011;34442;52.362;-1.302;2023-05-16T03:16:14;1.65;;;0.93;;
48651;SDS011;34442;52.362;-1.302;2023-05-16T03:18:40;2.13;;;0.98;;
48651;SDS011;34442;52.362;-1.302;2023-05-16T03:21:06;3.22;;;1.20;;
48651;SDS011;34442;52.362;-1.302;2023-05-16T03:23:31;3.47;;;1.23;;
48651;SDS011;34442;52.362;-1.302;2023-05-16T03:25:57;2.67;;;1.02;;
48651;SDS011;34442;52.362;-1.302;2023-05-16T03:28:23;2.42;;;0.90;;
48651;SDS011;34442;52.362;-1.302;2023-05-16T03:30:48;3.47;;;1.10;;
48651;SDS011;34442;52.362;-1.302;2023-05-16T03:33:13;1.13;;;0.80;;
48651;SDS011;34442;52.362;-1.302;2023-05-16T03:35:39;2.60;;;1.15;;
48651;SDS011;34442;52.362;-1.302;2023-05-16T03:38:05;1.73;;;0.82;;
48651;SDS011;34442;52.362;-1.302;2023-05-16T03:40:31;1.90;;;0.90;;
48651;SDS011;34442;52.362;-1.302;2023-05-16T03:42:56;1.92;;;0.93;;
48651;SDS011;34442;52.362;-1.302;2023-05-16T03:45:22;1.50;;;0.80;;
48651;SDS011;34442;52.362;-1.302;2023-05-16T03:47:48;4.68;;;1.08;;
48651;SDS011;34442;52.362;-1.302;2023-05-16T03:50:13;4.07;;;1.30;;
48651;SDS011;34442;52.362;-1.302;2023-05-16T03:52:39;2.05;;;1.00;;
48651;SDS011;34442;52.362;-1.302;2023-05-16T03:55:05;1.45;;;0.90;;
48651;SDS011;34442;52.362;-1.302;2023-05-16T03:57:31;1.40;;;0.90;;
48651;SDS011;34442;52.362;-1.302;2023-05-16T03:59:57;1.48;;;0.90;;
48651;SDS011;34442;52.362;-1.302;2023-05-16T04:02:22;1.80;;;1.10;;
48651;SDS011;34442;52.362;-1.302;2023-05-16T04:04:48;1.77;;;1.20;;
48651;SDS011;34442;52.362;-1.302;2023-05-16T04:07:14;1.73;;;1.10;;
48651;SDS011;34442;52.362;-1.302;2023-05-16T04:09:40;1.75;;;0.80;;
48651;SDS011;34442;52.362;-1.302;2023-05-16T04:12:05;2.85;;;1.02;;
48651;SDS011;34442;52.362;-1.302;2023-05-16T04:14:31;2.50;;;1.20;;
48651;SDS011;34442;52.362;-1.302;2023-05-16T04:16:58;1.23;;;0.90;;
48651;SDS011;34442;52.362;-1.302;2023-05-16T04:19:23;1.95;;;1.00;;
48651;SDS011;34442;52.362;-1.302;2023-05-16T04:21:49;1.45;;;0.80;;
48651;SDS011;34442;52.362;-1.302;2023-05-16T04:24:14;2.45;;;1.05;;
48651;SDS011;34442;52.362;-1.302;2023-05-16T04:26:40;2.90;;;0.95;;
48651;SDS011;34442;52.362;-1.302;2023-05-16T04:29:05;2.40;;;1.05;;
48651;SDS011;34442;52.362;-1.302;2023-05-16T04:31:31;1.27;;;0.90;;
48651;SDS011;34442;52.362;-1.302;2023-05-16T04:33:56;2.92;;;1.00;;
48651;SDS011;34442;52.362;-1.302;2023-05-16T04:36:22;2.97;;;1.00;;
48651;SDS011;34442;52.362;-1.302;2023-05-16T04:38:47;2.55;;;1.10;;
48651;SDS011;34442;52.362;-1.302;2023-05-16T04:41:13;1.77;;;0.90;;
48651;SDS011;34442;52.362;-1.302;2023-05-16T04:43:38;1.42;;;0.73;;
48651;SDS011;34442;52.362;-1.302;2023-05-16T04:46:05;2.88;;;1.25;;
48651;SDS011;34442;52.362;-1.302;2023-05-16T04:48:34;2.13;;;1.05;;
48651;SDS011;34442;52.362;-1.302;2023-05-16T04:50:59;1.83;;;0.82;;
48651;SDS011;34442;52.362;-1.302;2023-05-16T04:53:25;2.15;;;1.15;;
48651;SDS011;34442;52.362;-1.302;2023-05-16T04:55:51;1.23;;;0.95;;
48651;SDS011;34442;52.362;-1.302;2023-05-16T04:58:17;1.20;;;0.80;;
48651;SDS011;34442;52.362;-1.302;2023-05-16T05:00:42;1.20;;;0.80;;
48651;SDS011;34442;52.362;-1.302;2023-05-16T05:03:07;6.32;;;1.70;;
48651;SDS011;34442;52.362;-1.302;2023-05-16T05:05:33;2.50;;;1.10;;
48651;SDS011;34442;52.362;-1.302;2023-05-16T05:07:59;2.03;;;0.82;;
48651;SDS011;34442;52.362;-1.302;2023-05-16T05:10:28;1.65;;;0.90;;
48651;SDS011;34442;52.362;-1.302;2023-05-16T05:12:55;2.67;;;0.98;;
48651;SDS011;34442;52.362;-1.302;2023-05-16T05:15:21;4.72;;;1.10;;
48651;SDS011;34442;52.362;-1.302;2023-05-16T05:17:47;2.65;;;1.40;;
48651;SDS011;34442;52.362;-1.302;2023-05-16T05:20:12;2.15;;;1.00;;
48651;SDS011;34442;52.362;-1.302;2023-05-16T05:22:38;2.35;;;1.33;;
48651;SDS011;34442;52.362;-1.302;2023-05-16T05:25:04;1.92;;;1.15;;
48651;SDS011;34442;52.362;-1.302;2023-05-16T05:27:29;1.92;;;1.10;;
48651;SDS011;34442;52.362;-1.302;2023-05-16T05:29:55;1.52;;;0.90;;
48651;SDS011;34442;52.362;-1.302;2023-05-16T05:32:20;1.08;;;0.70;;
48651;SDS011;34442;52.362;-1.302;2023-05-16T05:34:46;2.67;;;0.80;;
48651;SDS011;34442;52.362;-1.302;2023-05-16T05:37:12;1.52;;;0.75;;
48651;SDS011;34442;52.362;-1.302;2023-05-16T05:39:38;3.50;;;0.90;;
48651;SDS011;34442;52.362;-1.302;2023-05-16T05:42:04;1.27;;;0.90;;
48651;SDS011;34442;52.362;-1.302;2023-05-16T05:44:29;0.70;;;0.70;;
48651;SDS011;34442;52.362;-1.302;2023-05-16T05:46:55;1.90;;;0.73;;
48651;SDS011;34442;52.362;-1.302;2023-05-16T05:49:22;1.25;;;0.70;;
48651;SDS011;34442;52.362;-1.302;2023-05-16T05:51:48;2.42;;;0.70;;
48651;SDS011;34442;52.362;-1.302;2023-05-16T05:54:16;2.03;;;1.10;;
48651;SDS011;34442;52.362;-1.302;2023-05-16T05:56:45;2.38;;;1.02;;
48651;SDS011;34442;52.362;-1.302;2023-05-16T05:59:10;1.30;;;0.75;;
48651;SDS011;34442;52.362;-1.302;2023-05-16T06:01:39;1.02;;;0.80;;
48651;SDS011;34442;52.362;-1.302;2023-05-16T06:04:05;2.75;;;0.90;;
48651;SDS011;34442;52.362;-1.302;2023-05-16T06:06:30;0.70;;;0.60;;
48651;SDS011;34442;52.362;-1.302;2023-05-16T06:08:56;2.67;;;1.02;;
48651;SDS011;34442;52.362;-1.302;2023-05-16T06:11:22;2.65;;;1.00;;
48651;SDS011;34442;52.362;-1.302;2023-05-16T06:13:49;2.30;;;0.98;;
48651;SDS011;34442;52.362;-1.302;2023-05-16T06:16:17;1.75;;;0.88;;
48651;SDS011;34442;52.362;-1.302;2023-05-16T06:18:43;3.03;;;1.10;;
48651;SDS011;34442;52.362;-1.302;2023-05-16T06:21:08;2.92;;;1.15;;
48651;SDS011;34442;52.362;-1.302;2023-05-16T06:23:34;2.72;;;0.80;;
48651;SDS011;34442;52.362;-1.302;2023-05-16T06:26:00;3.30;;;1.02;;
48651;SDS011;34442;52.362;-1.302;2023-05-16T06:28:26;1.83;;;0.90;;
48651;SDS011;34442;52.362;-1.302;2023-05-16T06:30:52;1.83;;;0.90;;
48651;SDS011;34442;52.362;-1.302;2023-05-16T06:33:21;5.68;;;1.90;;
48651;SDS011;34442;52.362;-1.302;2023-05-16T06:35:46;3.30;;;1.08;;
48651;SDS011;34442;52.362;-1.302;2023-05-16T06:38:13;2.95;;;1.20;;
48651;SDS011;34442;52.362;-1.302;2023-05-16T06:40:39;2.78;;;1.02;;
48651;SDS011;34442;52.362;-1.302;2023-05-16T06:43:04;3.65;;;1.27;;
48651;SDS011;34442;52.362;-1.302;2023-05-16T06:45:30;2.97;;;1.10;;
48651;SDS011;34442;52.362;-1.302;2023-05-16T06:47:55;4.00;;;1.10;;
48651;SDS011;34442;52.362;-1.302;2023-05-16T06:50:21;3.42;;;1.10;;
48651;SDS011;34442;52.362;-1.302;2023-05-16T06:52:47;1.20;;;0.90;;
48651;SDS011;34442;52.362;-1.302;2023-05-16T06:55:12;3.17;;;1.10;;
48651;SDS011;34442;52.362;-1.302;2023-05-16T06:57:38;2.08;;;1.00;;
48651;SDS011;34442;52.362;-1.302;2023-05-16T07:00:06;2.92;;;1.10;;
48651;SDS011;34442;52.362;-1.302;2023-05-16T07:02:32;2.88;;;0.88;;
48651;SDS011;34442;52.362;-1.302;2023-05-16T07:04:58;3.08;;;1.40;;
48651;SDS011;34442;52.362;-1.302;2023-05-16T07:07:23;2.00;;;0.90;;
48651;SDS011;34442;52.362;-1.302;2023-05-16T07:09:49;3.60;;;1.10;;
48651;SDS011;34442;52.362;-1.302;2023-05-16T07:12:14;1.95;;;1.13;;
48651;SDS011;34442;52.362;-1.302;2023-05-16T07:14:40;2.72;;;1.10;;
48651;SDS011;34442;52.362;-1.302;2023-05-16T07:17:07;1.13;;;0.80;;
48651;SDS011;34442;52.362;-1.302;2023-05-16T07:19:33;7.75;;;1.98;;
48651;SDS011;34442;52.362;-1.302;2023-05-16T07:21:58;6.68;;;1.35;;
48651;SDS011;34442;52.362;-1.302;2023-05-16T07:24:24;3.10;;;1.20;;
48651;SDS011;34442;52.362;-1.302;2023-05-16T07:26:49;4.70;;;1.40;;
48651;SDS011;34442;52.362;-1.302;2023-05-16T07:29:15;2.70;;;1.10;;
48651;SDS011;34442;52.362;-1.302;2023-05-16T07:31:41;2.15;;;1.10;;
48651;SDS011;34442;52.362;-1.302;2023-05-16T07:34:06;4.47;;;1.40;;
48651;SDS011;34442;52.362;-1.302;2023-05-16T07:36:32;2.20;;;0.90;;
48651;SDS011;34442;52.362;-1.302;2023-05-16T07:38:59;4.20;;;1.38;;
48651;SDS011;34442;52.362;-1.302;2023-05-16T07:41:24;3.75;;;1.48;;
48651;SDS011;34442;52.362;-1.302;2023-05-16T07:43:50;4.28;;;1.10;;
48651;SDS011;34442;52.362;-1.302;2023-05-16T07:46:15;5.55;;;1.02;;
48651;SDS011;34442;52.362;-1.302;2023-05-16T07:48:41;2.88;;;1.23;;
48651;SDS011;34442;52.362;-1.302;2023-05-16T07:51:06;3.45;;;1.27;;
48651;SDS011;34442;52.362;-1.302;2023-05-16T07:53:32;2.95;;;1.20;;
48651;SDS011;34442;52.362;-1.302;2023-05-16T07:55:57;4.03;;;1.30;;
48651;SDS011;34442;52.362;-1.302;2023-05-16T07:58:23;2.58;;;1.27;;
48651;SDS011;34442;52.362;-1.302;2023-05-16T08:00:48;5.85;;;1.63;;
48651;SDS011;34442;52.362;-1.302;2023-05-16T08:03:14;3.45;;;1.33;;
48651;SDS011;34442;52.362;-1.302;2023-05-16T08:05:40;4.47;;;1.20;;
48651;SDS011;34442;52.362;-1.302;2023-05-16T08:08:05;5.40;;;1.38;;
48651;SDS011;34442;52.362;-1.302;2023-05-16T08:10:30;2.83;;;1.40;;
48651;SDS011;34442;52.362;-1.302;2023-05-16T08:12:56;3.88;;;1.20;;
48651;SDS011;34442;52.362;-1.302;2023-05-16T08:15:21;1.58;;;1.13;;
48651;SDS011;34442;52.362;-1.302;2023-05-16T08:17:47;4.60;;;1.55;;
48651;SDS011;34442;52.362;-1.302;2023-05-16T08:20:12;3.00;;;1.42;;
48651;SDS011;34442;52.362;-1.302;2023-05-16T08:22:38;3.15;;;1.30;;
48651;SDS011;34442;52.362;-1.302;2023-05-16T08:25:07;2.67;;;1.10;;
48651;SDS011;34442;52.362;-1.302;2023-05-16T08:27:33;2.50;;;1.10;;
48651;SDS011;34442;52.362;-1.302;2023-05-16T08:29:58;2.33;;;1.15;;
48651;SDS011;34442;52.362;-1.302;2023-05-16T08:32:24;2.45;;;1.20;;
48651;SDS011;34442;52.362;-1.302;2023-05-16T08:34:52;4.15;;;1.67;;
48651;SDS011;34442;52.362;-1.302;2023-05-16T08:37:17;4.75;;;1.75;;
48651;SDS011;34442;52.362;-1.302;2023-05-16T08:39:43;4.97;;;1.75;;
48651;SDS011;34442;52.362;-1.302;2023-05-16T08:42:11;5.60;;;1.63;;
48651;SDS011;34442;52.362;-1.302;2023-05-16T08:44:37;4.15;;;1.70;;
48651;SDS011;34442;52.362;-1.302;2023-05-16T08:47:13;3.25;;;1.52;;
48651;SDS011;34442;52.362;-1.302;2023-05-16T08:49:43;2.47;;;1.10;;
48651;SDS011;34442;52.362;-1.302;2023-05-16T08:52:12;4.32;;;1.70;;
48651;SDS011;34442;52.362;-1.302;2023-05-16T08:54:38;4.15;;;1.50;;
48651;SDS011;34442;52.362;-1.302;2023-05-16T08:57:03;3.38;;;1.80;;
48651;SDS011;34442;52.362;-1.302;2023-05-16T08:59:30;5.03;;;1.80;;
48651;SDS011;34442;52.362;-1.302;2023-05-16T09:01:56;3.80;;;1.33;;
48651;SDS011;34442;52.362;-1.302;2023-05-16T09:04:22;5.18;;;1.90;;
48651;SDS011;34442;52.362;-1.302;2023-05-16T09:06:50;4.13;;;1.75;;
48651;SDS011;34442;52.362;-1.302;2023-05-16T09:09:16;3.58;;;1.75;;
48651;SDS011;34442;52.362;-1.302;2023-05-16T09:11:41;4.22;;;1.80;;
48651;SDS011;34442;52.362;-1.302;2023-05-16T09:14:07;4.25;;;1.60;;
48651;SDS011;34442;52.362;-1.302;2023-05-16T09:16:33;3.10;;;1.63;;
48651;SDS011;34442;52.362;-1.302;2023-05-16T09:18:59;4.45;;;1.88;;
48651;SDS011;34442;52.362;-1.302;2023-05-16T09:21:26;5.60;;;2.22;;
48651;SDS011;34442;52.362;-1.302;2023-05-16T09:23:53;6.13;;;2.17;;
48651;SDS011;34442;52.362;-1.302;2023-05-16T09:26:19;4.60;;;1.88;;
48651;SDS011;34442;52.362;-1.302;2023-05-16T09:28:46;4.55;;;2.15;;
48651;SDS011;34442;52.362;-1.302;2023-05-16T09:31:21;4.82;;;2.22;;
48651;SDS011;34442;52.362;-1.302;2023-05-16T09:33:50;3.33;;;1.60;;
48651;SDS011;34442;52.362;-1.302;2023-05-16T09:36:21;3.28;;;1.70;;
48651;SDS011;34442;52.362;-1.302;2023-05-16T09:38:48;5.47;;;1.85;;
48651;SDS011;34442;52.362;-1.302;2023-05-16T09:41:15;3.60;;;1.63;;
48651;SDS011;34442;52.362;-1.302;2023-05-16T09:43:41;5.15;;;2.00;;
48651;SDS011;34442;52.362;-1.302;2023-05-16T09:46:07;3.55;;;1.80;;
48651;SDS011;34442;52.362;-1.302;2023-05-16T09:48:44;4.32;;;2.08;;
48651;SDS011;34442;52.362;-1.302;2023-05-16T09:51:12;5.05;;;1.88;;
48651;SDS011;34442;52.362;-1.302;2023-05-16T09:53:38;5.70;;;2.03;;
48651;SDS011;34442;52.362;-1.302;2023-05-16T09:58:34;5.70;;;2.00;;
48651;SDS011;34442;52.362;-1.302;2023-05-16T10:01:03;3.03;;;1.50;;
48651;SDS011;34442;52.362;-1.302;2023-05-16T10:03:30;3.92;;;2.00;;
48651;SDS011;34442;52.362;-1.302;2023-05-16T10:05:56;3.72;;;1.83;;
48651;SDS011;34442;52.362;-1.302;2023-05-16T10:08:24;3.97;;;1.50;;
48651;SDS011;34442;52.362;-1.302;2023-05-16T10:10:51;4.78;;;1.70;;
48651;SDS011;34442;52.362;-1.302;2023-05-16T10:13:22;4.47;;;1.77;;
48651;SDS011;34442;52.362;-1.302;2023-05-16T10:15:48;3.80;;;1.50;;
48651;SDS011;34442;52.362;-1.302;2023-05-16T10:18:19;4.28;;;1.70;;
48651;SDS011;34442;52.362;-1.302;2023-05-16T10:20:46;4.60;;;1.95;;
48651;SDS011;34442;52.362;-1.302;2023-05-16T10:23:15;6.07;;;2.20;;
48651;SDS011;34442;52.362;-1.302;2023-05-16T10:25:43;5.07;;;1.75;;
48651;SDS011;34442;52.362;-1.302;2023-05-16T10:28:10;4.18;;;2.00;;
48651;SDS011;34442;52.362;-1.302;2023-05-16T10:30:36;5.97;;;1.98;;
48651;SDS011;34442;52.362;-1.302;2023-05-16T10:33:05;7.57;;;2.45;;
48651;SDS011;34442;52.362;-1.302;2023-05-16T10:35:33;6.03;;;2.45;;
48651;SDS011;34442;52.362;-1.302;2023-05-16T10:37:59;5.05;;;2.00;;
48651;SDS011;34442;52.362;-1.302;2023-05-16T10:40:25;3.92;;;1.88;;
48651;SDS011;34442;52.362;-1.302;2023-05-16T10:42:58;5.47;;;2.83;;
48651;SDS011;34442;52.362;-1.302;2023-05-16T10:45:25;7.28;;;2.63;;
48651;SDS011;34442;52.362;-1.302;2023-05-16T10:47:57;4.75;;;2.45;;
48651;SDS011;34442;52.362;-1.302;2023-05-16T10:50:30;5.53;;;2.20;;
48651;SDS011;34442;52.362;-1.302;2023-05-16T10:53:09;5.07;;;2.03;;
48651;SDS011;34442;52.362;-1.302;2023-05-16T10:58:17;3.67;;;1.80;;
48651;SDS011;34442;52.362;-1.302;2023-05-16T11:00:43;3.60;;;1.70;;
48651;SDS011;34442;52.362;-1.302;2023-05-16T11:03:18;5.00;;;2.17;;
48651;SDS011;34442;52.362;-1.302;2023-05-16T11:05:52;5.57;;;2.47;;
48651;SDS011;34442;52.362;-1.302;2023-05-16T11:08:20;5.10;;;2.15;;
48651;SDS011;34442;52.362;-1.302;2023-05-16T11:10:46;4.85;;;2.33;;
48651;SDS011;34442;52.362;-1.302;2023-05-16T11:13:11;5.45;;;2.90;;
48651;SDS011;34442;52.362;-1.302;2023-05-16T11:15:37;7.03;;;3.22;;
48651;SDS011;34442;52.362;-1.302;2023-05-16T11:18:09;6.18;;;2.72;;
48651;SDS011;34442;52.362;-1.302;2023-05-16T11:20:39;7.00;;;2.38;;
48651;SDS011;34442;52.362;-1.302;2023-05-16T11:25:44;6.13;;;2.75;;
48651;SDS011;34442;52.362;-1.302;2023-05-16T11:28:11;5.53;;;2.55;;
48651;SDS011;34442;52.362;-1.302;2023-05-16T11:30:44;5.43;;;2.63;;
48651;SDS011;34442;52.362;-1.302;2023-05-16T11:33:14;8.15;;;3.50;;
48651;SDS011;34442;52.362;-1.302;2023-05-16T11:35:40;9.32;;;3.50;;
48651;SDS011;34442;52.362;-1.302;2023-05-16T11:38:11;7.75;;;3.50;;
48651;SDS011;34442;52.362;-1.302;2023-05-16T11:40:40;5.10;;;2.50;;
48651;SDS011;34442;52.362;-1.302;2023-05-16T11:43:06;4.75;;;2.22;;
48651;SDS011;34442;52.362;-1.302;2023-05-16T11:45:32;5.95;;;2.50;;
48651;SDS011;34442;52.362;-1.302;2023-05-16T11:48:00;4.72;;;2.22;;
48651;SDS011;34442;52.362;-1.302;2023-05-16T11:50:29;5.97;;;3.33;;
48651;SDS011;34442;52.362;-1.302;2023-05-16T11:52:58;5.07;;;2.22;;
48651;SDS011;34442;52.362;-1.302;2023-05-16T11:55:24;9.48;;;4.57;;
48651;SDS011;34442;52.362;-1.302;2023-05-16T11:57:52;6.93;;;3.22;;
48651;SDS011;34442;52.362;-1.302;2023-05-16T12:00:27;5.80;;;3.20;;
48651;SDS011;34442;52.362;-1.302;2023-05-16T12:02:53;7.68;;;2.97;;
48651;SDS011;34442;52.362;-1.302;2023-05-16T12:05:24;4.55;;;2.58;;
48651;SDS011;34442;52.362;-1.302;2023-05-16T12:07:51;5.63;;;3.10;;
48651;SDS011;34442;52.362;-1.302;2023-05-16T12:10:19;5.30;;;2.65;;
48651;SDS011;34442;52.362;-1.302;2023-05-16T12:12:47;7.38;;;3.65;;
48651;SDS011;34442;52.362;-1.302;2023-05-16T12:15:18;5.68;;;3.13;;
48651;SDS011;34442;52.362;-1.302;2023-05-16T12:17:45;6.10;;;2.90;;
48651;SDS011;34442;52.362;-1.302;2023-05-16T12:20:11;6.97;;;3.22;;
48651;SDS011;34442;52.362;-1.302;2023-05-16T12:22:39;7.90;;;4.00;;
48651;SDS011;34442;52.362;-1.302;2023-05-16T12:25:20;8.63;;;3.88;;
48651;SDS011;34442;52.362;-1.302;2023-05-16T12:27:48;6.77;;;3.63;;
48651;SDS011;34442;52.362;-1.302;2023-05-16T12:30:16;5.97;;;3.38;;
48651;SDS011;34442;52.362;-1.302;2023-05-16T12:32:42;6.43;;;3.17;;
48651;SDS011;34442;52.362;-1.302;2023-05-16T12:35:09;5.68;;;2.88;;
48651;SDS011;34442;52.362;-1.302;2023-05-16T12:37:35;6.88;;;3.38;;
48651;SDS011;34442;52.362;-1.302;2023-05-16T12:40:01;4.97;;;2.72;;
48651;SDS011;34442;52.362;-1.302;2023-05-16T12:42:28;6.53;;;3.42;;
48651;SDS011;34442;52.362;-1.302;2023-05-16T12:44:54;6.70;;;3.60;;
48651;SDS011;34442;52.362;-1.302;2023-05-16T12:47:20;6.05;;;2.85;;
48651;SDS011;34442;52.362;-1.302;2023-05-16T12:49:46;7.15;;;3.38;;
48651;SDS011;34442;52.362;-1.302;2023-05-16T12:52:19;6.00;;;3.15;;
48651;SDS011;34442;52.362;-1.302;2023-05-16T12:54:46;6.45;;;3.50;;
48651;SDS011;34442;52.362;-1.302;2023-05-16T12:57:12;5.28;;;2.47;;
48651;SDS011;34442;52.362;-1.302;2023-05-16T12:59:38;6.72;;;3.00;;
48651;SDS011;34442;52.362;-1.302;2023-05-16T13:02:04;7.50;;;2.75;;
48651;SDS011;34442;52.362;-1.302;2023-05-16T13:04:29;8.48;;;3.85;;
48651;SDS011;34442;52.362;-1.302;2023-05-16T13:06:55;6.40;;;3.00;;
48651;SDS011;34442;52.362;-1.302;2023-05-16T13:09:21;6.82;;;3.92;;
48651;SDS011;34442;52.362;-1.302;2023-05-16T13:11:47;9.02;;;3.95;;
48651;SDS011;34442;52.362;-1.302;2023-05-16T13:14:13;6.15;;;3.03;;
48651;SDS011;34442;52.362;-1.302;2023-05-16T13:16:38;6.85;;;3.33;;
48651;SDS011;34442;52.362;-1.302;2023-05-16T13:19:04;5.53;;;2.72;;
48651;SDS011;34442;52.362;-1.302;2023-05-16T13:21:29;4.82;;;2.45;;
48651;SDS011;34442;52.362;-1.302;2023-05-16T13:23:56;9.30;;;3.92;;
48651;SDS011;34442;52.362;-1.302;2023-05-16T13:26:22;6.15;;;2.85;;
48651;SDS011;34442;52.362;-1.302;2023-05-16T13:28:48;5.05;;;2.85;;
48651;SDS011;34442;52.362;-1.302;2023-05-16T13:31:17;7.10;;;2.70;;
48651;SDS011;34442;52.362;-1.302;2023-05-16T13:33:43;6.10;;;3.47;;
48651;SDS011;34442;52.362;-1.302;2023-05-16T13:36:11;6.03;;;3.08;;
48651;SDS011;34442;52.362;-1.302;2023-05-16T13:38:37;5.13;;;2.90;;
48651;SDS011;34442;52.362;-1.302;2023-05-16T13:41:02;5.75;;;2.97;;
48651;SDS011;34442;52.362;-1.302;2023-05-16T13:43:27;5.35;;;2.88;;
48651;SDS011;34442;52.362;-1.302;2023-05-16T13:45:53;6.53;;;2.85;;
48651;SDS011;34442;52.362;-1.302;2023-05-16T13:48:18;8.35;;;3.20;;
48651;SDS011;34442;52.362;-1.302;2023-05-16T13:50:44;8.02;;;3.15;;
48651;SDS011;34442;52.362;-1.302;2023-05-16T13:53:10;8.60;;;3.08;;
48651;SDS011;34442;52.362;-1.302;2023-05-16T13:55:36;10.00;;;3.35;;
48651;SDS011;34442;52.362;-1.302;2023-05-16T13:58:01;5.22;;;2.42;;
48651;SDS011;34442;52.362;-1.302;2023-05-16T14:00:27;5.75;;;3.05;;
48651;SDS011;34442;52.362;-1.302;2023-05-16T14:02:53;6.43;;;2.92;;
48651;SDS011;34442;52.362;-1.302;2023-05-16T14:05:19;5.78;;;2.88;;
48651;SDS011;34442;52.362;-1.302;2023-05-16T14:07:45;5.07;;;2.70;;
48651;SDS011;34442;52.362;-1.302;2023-05-16T14:10:11;7.95;;;3.10;;
48651;SDS011;34442;52.362;-1.302;2023-05-16T14:12:36;7.32;;;3.22;;
48651;SDS011;34442;52.362;-1.302;2023-05-16T14:15:02;7.18;;;2.45;;
48651;SDS011;34442;52.362;-1.302;2023-05-16T14:17:29;5.28;;;2.50;;
48651;SDS011;34442;52.362;-1.302;2023-05-16T14:19:54;8.80;;;4.03;;
48651;SDS011;34442;52.362;-1.302;2023-05-16T14:22:20;6.40;;;2.90;;
48651;SDS011;34442;52.362;-1.302;2023-05-16T14:24:45;7.18;;;3.10;;
48651;SDS011;34442;52.362;-1.302;2023-05-16T14:27:10;7.97;;;2.70;;
48651;SDS011;34442;52.362;-1.302;2023-05-16T14:29:36;5.55;;;2.60;;
48651;SDS011;34442;52.362;-1.302;2023-05-16T14:32:01;5.38;;;2.47;;
48651;SDS011;34442;52.362;-1.302;2023-05-16T14:34:27;7.10;;;2.60;;
48651;SDS011;34442;52.362;-1.302;2023-05-16T14:36:52;6.50;;;2.92;;
48651;SDS011;34442;52.362;-1.302;2023-05-16T14:39:18;4.57;;;2.65;;
48651;SDS011;34442;52.362;-1.302;2023-05-16T14:41:43;3.67;;;1.85;;
48651;SDS011;34442;52.362;-1.302;2023-05-16T14:44:09;9.75;;;2.92;;
48651;SDS011;34442;52.362;-1.302;2023-05-16T14:46:34;6.65;;;2.60;;
48651;SDS011;34442;52.362;-1.302;2023-05-16T14:48:59;4.70;;;2.22;;